sensor_id;sensor_type;location;lat;lon;timestamp;P1;durP1;ratioP1;P2;durP2;ratioP2
49193;SDS011;35029;50.804;12.866;2023-06-22T00:00:52;31.10;;;12.27;;
49193;SDS011;35029;50.804;12.866;2023-06-22T00:03:19;26.98;;;13.30;;
49193;SDS011;35029;50.804;12.866;2023-06-22T00:05:46;16.05;;;11.65;;
49193;SDS011;35029;50.804;12.866;2023-06-22T00:08:12;28.05;;;10.82;;
49193;SDS011;35029;50.804;12.866;2023-06-22T00:10:38;31.17;;;11.60;;
49193;SDS011;35029;50.804;12.866;2023-06-22T00:13:05;25.90;;;10.68;;
49193;SDS011;35029;50.804;12.866;2023-06-22T00:15:31;19.70;;;10.68;;
49193;SDS011;35029;50.804;12.866;2023-06-22T00:17:57;19.33;;;10.52;;
49193;SDS011;35029;50.804;12.866;2023-06-22T00:20:24;25.15;;;11.57;;
49193;SDS011;35029;50.804;12.866;2023-06-22T00:22:53;20.45;;;11.73;;
49193;SDS011;35029;50.804;12.866;2023-06-22T00:25:20;22.85;;;10.77;;
49193;SDS011;35029;50.804;12.866;2023-06-22T00:27:46;23.48;;;11.27;;
49193;SDS011;35029;50.804;12.866;2023-06-22T00:30:11;23.50;;;11.38;;
49193;SDS011;35029;50.804;12.866;2023-06-22T00:32:37;27.83;;;11.35;;
49193;SDS011;35029;50.804;12.866;2023-06-22T00:35:02;20.90;;;10.88;;
49193;SDS011;35029;50.804;12.866;2023-06-22T00:37:28;23.60;;;10.90;;
49193;SDS011;35029;50.804;12.866;2023-06-22T00:39:55;21.70;;;11.43;;
49193;SDS011;35029;50.804;12.866;2023-06-22T00:42:21;25.40;;;10.25;;
49193;SDS011;35029;50.804;12.866;2023-06-22T00:44:52;29.33;;;11.25;;
49193;SDS011;35029;50.804;12.866;2023-06-22T00:47:18;21.67;;;9.85;;
49193;SDS011;35029;50.804;12.866;2023-06-22T00:49:44;19.95;;;9.27;;
49193;SDS011;35029;50.804;12.866;2023-06-22T00:54:47;26.30;;;11.38;;
49193;SDS011;35029;50.804;12.866;2023-06-22T00:57:14;23.35;;;10.25;;
49193;SDS011;35029;50.804;12.866;2023-06-22T00:59:43;19.05;;;10.30;;
49193;SDS011;35029;50.804;12.866;2023-06-22T01:02:09;18.88;;;9.52;;
49193;SDS011;35029;50.804;12.866;2023-06-22T01:04:35;22.23;;;10.48;;
49193;SDS011;35029;50.804;12.866;2023-06-22T01:07:22;22.90;;;10.30;;
49193;SDS011;35029;50.804;12.866;2023-06-22T01:12:45;21.98;;;10.40;;
49193;SDS011;35029;50.804;12.866;2023-06-22T01:15:23;14.05;;;9.73;;
49193;SDS011;35029;50.804;12.866;2023-06-22T01:17:56;31.20;;;10.30;;
49193;SDS011;35029;50.804;12.866;2023-06-22T01:20:23;19.33;;;9.57;;
49193;SDS011;35029;50.804;12.866;2023-06-22T01:26:02;19.88;;;10.57;;
49193;SDS011;35029;50.804;12.866;2023-06-22T01:28:45;27.58;;;10.82;;
49193;SDS011;35029;50.804;12.866;2023-06-22T01:31:18;25.35;;;9.88;;
49193;SDS011;35029;50.804;12.866;2023-06-22T01:33:51;21.20;;;9.93;;
49193;SDS011;35029;50.804;12.866;2023-06-22T01:36:20;22.83;;;11.10;;
49193;SDS011;35029;50.804;12.866;2023-06-22T01:38:46;12.40;;;8.35;;
49193;SDS011;35029;50.804;12.866;2023-06-22T01:41:13;20.48;;;10.23;;
49193;SDS011;35029;50.804;12.866;2023-06-22T01:43:40;25.92;;;10.82;;
49193;SDS011;35029;50.804;12.866;2023-06-22T01:46:06;26.70;;;11.13;;
49193;SDS011;35029;50.804;12.866;2023-06-22T01:48:33;20.13;;;10.32;;
49193;SDS011;35029;50.804;12.866;2023-06-22T01:51:00;21.83;;;9.18;;
49193;SDS011;35029;50.804;12.866;2023-06-22T01:53:27;19.90;;;10.10;;
49193;SDS011;35029;50.804;12.866;2023-06-22T01:55:53;19.38;;;9.98;;
49193;SDS011;35029;50.804;12.866;2023-06-22T01:58:20;15.55;;;9.27;;
49193;SDS011;35029;50.804;12.866;2023-06-22T02:00:51;17.48;;;9.82;;
49193;SDS011;35029;50.804;12.866;2023-06-22T02:03:23;17.02;;;9.85;;
49193;SDS011;35029;50.804;12.866;2023-06-22T02:05:58;16.90;;;9.68;;
49193;SDS011;35029;50.804;12.866;2023-06-22T02:08:30;19.45;;;8.23;;
49193;SDS011;35029;50.804;12.866;2023-06-22T02:11:00;15.20;;;9.35;;
49193;SDS011;35029;50.804;12.866;2023-06-22T02:13:28;16.90;;;9.70;;
49193;SDS011;35029;50.804;12.866;2023-06-22T02:15:55;16.85;;;8.73;;
49193;SDS011;35029;50.804;12.866;2023-06-22T02:18:21;17.38;;;8.70;;
49193;SDS011;35029;50.804;12.866;2023-06-22T02:20:47;19.50;;;9.15;;
49193;SDS011;35029;50.804;12.866;2023-06-22T02:23:12;17.77;;;9.73;;
49193;SDS011;35029;50.804;12.866;2023-06-22T02:25:38;18.20;;;9.90;;
49193;SDS011;35029;50.804;12.866;2023-06-22T02:28:03;24.17;;;9.30;;
49193;SDS011;35029;50.804;12.866;2023-06-22T02:30:29;16.63;;;10.50;;
49193;SDS011;35029;50.804;12.866;2023-06-22T02:32:55;16.58;;;9.80;;
49193;SDS011;35029;50.804;12.866;2023-06-22T02:35:27;18.17;;;9.88;;
49193;SDS011;35029;50.804;12.866;2023-06-22T02:38:00;14.48;;;9.63;;
49193;SDS011;35029;50.804;12.866;2023-06-22T02:40:27;15.90;;;9.90;;
49193;SDS011;35029;50.804;12.866;2023-06-22T02:42:55;13.82;;;9.73;;
49193;SDS011;35029;50.804;12.866;2023-06-22T02:45:23;19.17;;;10.70;;
49193;SDS011;35029;50.804;12.866;2023-06-22T02:47:49;15.85;;;9.48;;
49193;SDS011;35029;50.804;12.866;2023-06-22T02:50:15;30.50;;;11.75;;
49193;SDS011;35029;50.804;12.866;2023-06-22T02:52:41;20.98;;;10.85;;
49193;SDS011;35029;50.804;12.866;2023-06-22T02:55:06;19.05;;;10.13;;
49193;SDS011;35029;50.804;12.866;2023-06-22T02:57:34;27.05;;;11.50;;
49193;SDS011;35029;50.804;12.866;2023-06-22T02:59:59;20.33;;;9.82;;
49193;SDS011;35029;50.804;12.866;2023-06-22T03:02:25;15.43;;;9.50;;
49193;SDS011;35029;50.804;12.866;2023-06-22T03:04:52;21.15;;;10.45;;
49193;SDS011;35029;50.804;12.866;2023-06-22T03:07:19;21.75;;;10.68;;
49193;SDS011;35029;50.804;12.866;2023-06-22T03:09:49;12.68;;;9.40;;
49193;SDS011;35029;50.804;12.866;2023-06-22T03:12:15;28.80;;;10.32;;
49193;SDS011;35029;50.804;12.866;2023-06-22T03:14:48;17.73;;;9.95;;
49193;SDS011;35029;50.804;12.866;2023-06-22T03:17:14;16.67;;;9.82;;
49193;SDS011;35029;50.804;12.866;2023-06-22T03:19:40;19.05;;;9.90;;
49193;SDS011;35029;50.804;12.866;2023-06-22T03:22:05;16.73;;;9.00;;
49193;SDS011;35029;50.804;12.866;2023-06-22T03:24:32;21.92;;;10.95;;
49193;SDS011;35029;50.804;12.866;2023-06-22T03:26:59;17.48;;;9.60;;
49193;SDS011;35029;50.804;12.866;2023-06-22T03:29:26;14.60;;;9.38;;
49193;SDS011;35029;50.804;12.866;2023-06-22T03:31:52;17.08;;;9.82;;
49193;SDS011;35029;50.804;12.866;2023-06-22T03:34:17;13.57;;;8.98;;
49193;SDS011;35029;50.804;12.866;2023-06-22T03:36:44;19.90;;;10.60;;
49193;SDS011;35029;50.804;12.866;2023-06-22T03:39:10;23.38;;;11.05;;
49193;SDS011;35029;50.804;12.866;2023-06-22T03:41:36;18.40;;;10.10;;
49193;SDS011;35029;50.804;12.866;2023-06-22T03:44:01;16.35;;;10.00;;
49193;SDS011;35029;50.804;12.866;2023-06-22T03:46:27;14.63;;;9.82;;
49193;SDS011;35029;50.804;12.866;2023-06-22T03:48:53;16.15;;;10.20;;
49193;SDS011;35029;50.804;12.866;2023-06-22T03:51:18;20.50;;;10.50;;
49193;SDS011;35029;50.804;12.866;2023-06-22T03:53:44;13.80;;;10.05;;
49193;SDS011;35029;50.804;12.866;2023-06-22T03:56:09;16.10;;;9.48;;
49193;SDS011;35029;50.804;12.866;2023-06-22T03:58:35;12.80;;;9.38;;
49193;SDS011;35029;50.804;12.866;2023-06-22T04:01:01;13.07;;;9.27;;
49193;SDS011;35029;50.804;12.866;2023-06-22T04:03:27;15.55;;;10.00;;
49193;SDS011;35029;50.804;12.866;2023-06-22T04:05:53;10.68;;;9.60;;
49193;SDS011;35029;50.804;12.866;2023-06-22T04:08:18;12.25;;;8.48;;
49193;SDS011;35029;50.804;12.866;2023-06-22T04:10:44;16.35;;;10.30;;
49193;SDS011;35029;50.804;12.866;2023-06-22T04:13:10;10.10;;;8.68;;
49193;SDS011;35029;50.804;12.866;2023-06-22T04:15:35;11.95;;;10.18;;
49193;SDS011;35029;50.804;12.866;2023-06-22T04:18:01;19.83;;;9.20;;
49193;SDS011;35029;50.804;12.866;2023-06-22T04:20:26;15.20;;;10.35;;
49193;SDS011;35029;50.804;12.866;2023-06-22T04:22:52;12.63;;;10.27;;
49193;SDS011;35029;50.804;12.866;2023-06-22T04:25:19;15.45;;;10.55;;
49193;SDS011;35029;50.804;12.866;2023-06-22T04:27:45;16.50;;;9.13;;
49193;SDS011;35029;50.804;12.866;2023-06-22T04:30:11;12.13;;;10.10;;
49193;SDS011;35029;50.804;12.866;2023-06-22T04:32:37;22.63;;;11.00;;
49193;SDS011;35029;50.804;12.866;2023-06-22T04:35:03;19.98;;;11.18;;
49193;SDS011;35029;50.804;12.866;2023-06-22T04:37:32;19.63;;;10.52;;
49193;SDS011;35029;50.804;12.866;2023-06-22T04:39:58;16.40;;;10.82;;
49193;SDS011;35029;50.804;12.866;2023-06-22T04:42:27;20.58;;;13.88;;
49193;SDS011;35029;50.804;12.866;2023-06-22T04:44:52;16.23;;;13.18;;
49193;SDS011;35029;50.804;12.866;2023-06-22T04:47:18;23.52;;;12.85;;
49193;SDS011;35029;50.804;12.866;2023-06-22T04:49:44;17.73;;;13.68;;
49193;SDS011;35029;50.804;12.866;2023-06-22T04:52:11;18.17;;;13.20;;
49193;SDS011;35029;50.804;12.866;2023-06-22T04:54:38;14.35;;;12.85;;
49193;SDS011;35029;50.804;12.866;2023-06-22T04:57:06;19.85;;;13.57;;
49193;SDS011;35029;50.804;12.866;2023-06-22T04:59:36;15.48;;;13.40;;
49193;SDS011;35029;50.804;12.866;2023-06-22T05:02:04;14.35;;;11.40;;
49193;SDS011;35029;50.804;12.866;2023-06-22T05:04:30;23.05;;;13.50;;
49193;SDS011;35029;50.804;12.866;2023-06-22T05:06:59;15.63;;;13.02;;
49193;SDS011;35029;50.804;12.866;2023-06-22T05:09:25;17.73;;;14.05;;
49193;SDS011;35029;50.804;12.866;2023-06-22T05:11:51;17.48;;;12.82;;
49193;SDS011;35029;50.804;12.866;2023-06-22T05:14:17;16.05;;;11.90;;
49193;SDS011;35029;50.804;12.866;2023-06-22T05:16:43;19.27;;;12.73;;
49193;SDS011;35029;50.804;12.866;2023-06-22T05:19:09;17.90;;;10.80;;
49193;SDS011;35029;50.804;12.866;2023-06-22T05:21:35;14.73;;;10.77;;
49193;SDS011;35029;50.804;12.866;2023-06-22T05:24:01;11.52;;;10.20;;
49193;SDS011;35029;50.804;12.866;2023-06-22T05:26:31;12.27;;;10.13;;
49193;SDS011;35029;50.804;12.866;2023-06-22T05:28:59;22.88;;;11.10;;
49193;SDS011;35029;50.804;12.866;2023-06-22T05:31:27;11.70;;;10.50;;
49193;SDS011;35029;50.804;12.866;2023-06-22T05:33:53;10.68;;;9.50;;
49193;SDS011;35029;50.804;12.866;2023-06-22T05:36:20;10.32;;;9.23;;
49193;SDS011;35029;50.804;12.866;2023-06-22T05:38:46;11.70;;;10.43;;
49193;SDS011;35029;50.804;12.866;2023-06-22T05:41:12;13.88;;;10.43;;
49193;SDS011;35029;50.804;12.866;2023-06-22T05:43:39;11.18;;;9.85;;
49193;SDS011;35029;50.804;12.866;2023-06-22T05:46:05;13.63;;;12.18;;
49193;SDS011;35029;50.804;12.866;2023-06-22T05:48:31;13.07;;;11.65;;
49193;SDS011;35029;50.804;12.866;2023-06-22T05:50:57;16.13;;;12.23;;
49193;SDS011;35029;50.804;12.866;2023-06-22T05:53:23;11.63;;;9.43;;
49193;SDS011;35029;50.804;12.866;2023-06-22T05:55:48;13.15;;;10.40;;
49193;SDS011;35029;50.804;12.866;2023-06-22T05:58:14;12.68;;;9.23;;
49193;SDS011;35029;50.804;12.866;2023-06-22T06:00:40;11.70;;;9.85;;
49193;SDS011;35029;50.804;12.866;2023-06-22T06:03:07;10.40;;;8.82;;
49193;SDS011;35029;50.804;12.866;2023-06-22T06:05:33;11.15;;;9.23;;
49193;SDS011;35029;50.804;12.866;2023-06-22T06:08:00;8.73;;;7.93;;
49193;SDS011;35029;50.804;12.866;2023-06-22T06:10:26;9.55;;;8.45;;
49193;SDS011;35029;50.804;12.866;2023-06-22T06:12:54;11.98;;;8.55;;
49193;SDS011;35029;50.804;12.866;2023-06-22T06:15:20;11.18;;;8.73;;
49193;SDS011;35029;50.804;12.866;2023-06-22T06:17:47;9.35;;;8.40;;
49193;SDS011;35029;50.804;12.866;2023-06-22T06:20:12;12.05;;;8.30;;
49193;SDS011;35029;50.804;12.866;2023-06-22T06:22:38;9.65;;;8.73;;
49193;SDS011;35029;50.804;12.866;2023-06-22T06:25:05;8.57;;;7.78;;
49193;SDS011;35029;50.804;12.866;2023-06-22T06:27:31;9.98;;;8.88;;
49193;SDS011;35029;50.804;12.866;2023-06-22T06:29:56;10.73;;;9.30;;
49193;SDS011;35029;50.804;12.866;2023-06-22T06:32:22;11.30;;;9.13;;
49193;SDS011;35029;50.804;12.866;2023-06-22T06:34:47;8.25;;;7.55;;
49193;SDS011;35029;50.804;12.866;2023-06-22T06:37:13;9.20;;;8.32;;
49193;SDS011;35029;50.804;12.866;2023-06-22T06:39:39;9.77;;;8.88;;
49193;SDS011;35029;50.804;12.866;2023-06-22T06:42:04;10.02;;;9.02;;
49193;SDS011;35029;50.804;12.866;2023-06-22T06:44:30;9.32;;;8.43;;
49193;SDS011;35029;50.804;12.866;2023-06-22T06:46:56;9.10;;;8.15;;
49193;SDS011;35029;50.804;12.866;2023-06-22T06:49:21;9.55;;;8.63;;
49193;SDS011;35029;50.804;12.866;2023-06-22T06:51:47;10.00;;;8.98;;
49193;SDS011;35029;50.804;12.866;2023-06-22T06:54:12;9.73;;;8.40;;
49193;SDS011;35029;50.804;12.866;2023-06-22T06:56:38;9.40;;;8.43;;
49193;SDS011;35029;50.804;12.866;2023-06-22T06:59:04;8.57;;;7.78;;
49193;SDS011;35029;50.804;12.866;2023-06-22T07:01:29;8.55;;;7.75;;
49193;SDS011;35029;50.804;12.866;2023-06-22T07:03:59;8.52;;;7.68;;
49193;SDS011;35029;50.804;12.866;2023-06-22T07:06:26;9.30;;;8.40;;
49193;SDS011;35029;50.804;12.866;2023-06-22T07:08:54;10.13;;;8.20;;
49193;SDS011;35029;50.804;12.866;2023-06-22T07:11:20;8.38;;;7.57;;
49193;SDS011;35029;50.804;12.866;2023-06-22T07:13:46;9.93;;;7.25;;
49193;SDS011;35029;50.804;12.866;2023-06-22T07:16:11;8.20;;;7.40;;
49193;SDS011;35029;50.804;12.866;2023-06-22T07:18:39;8.52;;;7.75;;
49193;SDS011;35029;50.804;12.866;2023-06-22T07:21:06;8.63;;;7.82;;
49193;SDS011;35029;50.804;12.866;2023-06-22T07:23:32;7.20;;;6.57;;
49193;SDS011;35029;50.804;12.866;2023-06-22T07:25:58;8.88;;;7.90;;
49193;SDS011;35029;50.804;12.866;2023-06-22T07:28:27;11.45;;;7.60;;
49193;SDS011;35029;50.804;12.866;2023-06-22T07:30:56;7.82;;;7.13;;
49193;SDS011;35029;50.804;12.866;2023-06-22T07:33:22;9.25;;;7.70;;
49193;SDS011;35029;50.804;12.866;2023-06-22T07:35:48;10.07;;;7.65;;
49193;SDS011;35029;50.804;12.866;2023-06-22T07:38:16;8.90;;;8.10;;
49193;SDS011;35029;50.804;12.866;2023-06-22T07:40:41;7.70;;;7.07;;
49193;SDS011;35029;50.804;12.866;2023-06-22T07:43:07;9.68;;;7.60;;
49193;SDS011;35029;50.804;12.866;2023-06-22T07:45:32;8.20;;;7.50;;
49193;SDS011;35029;50.804;12.866;2023-06-22T07:48:00;8.48;;;7.68;;
49193;SDS011;35029;50.804;12.866;2023-06-22T07:50:26;11.68;;;7.45;;
49193;SDS011;35029;50.804;12.866;2023-06-22T07:52:52;8.00;;;7.20;;
49193;SDS011;35029;50.804;12.866;2023-06-22T07:55:18;8.20;;;7.50;;
49193;SDS011;35029;50.804;12.866;2023-06-22T07:57:43;8.57;;;7.68;;
49193;SDS011;35029;50.804;12.866;2023-06-22T08:00:09;8.05;;;7.35;;
49193;SDS011;35029;50.804;12.866;2023-06-22T08:02:40;9.32;;;8.05;;
49193;SDS011;35029;50.804;12.866;2023-06-22T08:05:07;8.07;;;7.30;;
49193;SDS011;35029;50.804;12.866;2023-06-22T08:07:35;9.43;;;7.82;;
49193;SDS011;35029;50.804;12.866;2023-06-22T08:10:02;8.27;;;7.50;;
49193;SDS011;35029;50.804;12.866;2023-06-22T08:12:28;8.60;;;7.78;;
49193;SDS011;35029;50.804;12.866;2023-06-22T08:14:55;8.30;;;7.53;;
49193;SDS011;35029;50.804;12.866;2023-06-22T08:17:22;8.35;;;7.22;;
49193;SDS011;35029;50.804;12.866;2023-06-22T08:19:52;7.50;;;6.88;;
49193;SDS011;35029;50.804;12.866;2023-06-22T08:22:17;8.20;;;7.22;;
49193;SDS011;35029;50.804;12.866;2023-06-22T08:24:44;7.88;;;7.10;;
49193;SDS011;35029;50.804;12.866;2023-06-22T08:27:10;8.65;;;7.75;;
49193;SDS011;35029;50.804;12.866;2023-06-22T08:29:41;7.95;;;6.63;;
49193;SDS011;35029;50.804;12.866;2023-06-22T08:32:11;9.23;;;7.68;;
49193;SDS011;35029;50.804;12.866;2023-06-22T08:34:37;7.75;;;6.97;;
49193;SDS011;35029;50.804;12.866;2023-06-22T08:37:07;8.70;;;7.33;;
49193;SDS011;35029;50.804;12.866;2023-06-22T08:39:33;7.82;;;7.13;;
49193;SDS011;35029;50.804;12.866;2023-06-22T08:41:59;7.57;;;6.88;;
49193;SDS011;35029;50.804;12.866;2023-06-22T08:44:25;9.07;;;6.75;;
49193;SDS011;35029;50.804;12.866;2023-06-22T08:46:50;7.43;;;6.72;;
49193;SDS011;35029;50.804;12.866;2023-06-22T08:49:16;7.82;;;6.95;;
49193;SDS011;35029;50.804;12.866;2023-06-22T08:51:41;7.35;;;6.45;;
49193;SDS011;35029;50.804;12.866;2023-06-22T08:54:07;7.30;;;6.60;;
49193;SDS011;35029;50.804;12.866;2023-06-22T08:56:32;7.45;;;6.70;;
49193;SDS011;35029;50.804;12.866;2023-06-22T08:58:58;6.80;;;6.20;;
49193;SDS011;35029;50.804;12.866;2023-06-22T09:01:23;7.80;;;6.97;;
49193;SDS011;35029;50.804;12.866;2023-06-22T09:03:49;8.68;;;6.40;;
49193;SDS011;35029;50.804;12.866;2023-06-22T09:06:20;7.25;;;6.55;;
49193;SDS011;35029;50.804;12.866;2023-06-22T09:08:47;9.35;;;7.32;;
49193;SDS011;35029;50.804;12.866;2023-06-22T09:11:12;7.07;;;6.38;;
49193;SDS011;35029;50.804;12.866;2023-06-22T09:13:38;7.47;;;6.78;;
49193;SDS011;35029;50.804;12.866;2023-06-22T09:16:04;7.28;;;6.57;;
49193;SDS011;35029;50.804;12.866;2023-06-22T09:18:29;8.02;;;6.72;;
49193;SDS011;35029;50.804;12.866;2023-06-22T09:20:55;7.80;;;6.85;;
49193;SDS011;35029;50.804;12.866;2023-06-22T09:23:21;8.27;;;7.47;;
49193;SDS011;35029;50.804;12.866;2023-06-22T09:25:46;8.65;;;7.47;;
49193;SDS011;35029;50.804;12.866;2023-06-22T09:28:13;7.70;;;6.88;;
49193;SDS011;35029;50.804;12.866;2023-06-22T09:30:39;8.75;;;6.85;;
49193;SDS011;35029;50.804;12.866;2023-06-22T09:33:05;7.70;;;7.00;;
49193;SDS011;35029;50.804;12.866;2023-06-22T09:35:31;8.00;;;7.30;;
49193;SDS011;35029;50.804;12.866;2023-06-22T09:37:56;7.30;;;6.53;;
49193;SDS011;35029;50.804;12.866;2023-06-22T09:40:22;7.82;;;7.10;;
49193;SDS011;35029;50.804;12.866;2023-06-22T09:42:48;8.13;;;6.90;;
49193;SDS011;35029;50.804;12.866;2023-06-22T09:45:13;7.90;;;7.13;;
49193;SDS011;35029;50.804;12.866;2023-06-22T09:47:39;8.10;;;7.22;;
49193;SDS011;35029;50.804;12.866;2023-06-22T09:50:05;8.02;;;7.22;;
49193;SDS011;35029;50.804;12.866;2023-06-22T09:52:31;7.80;;;7.10;;
49193;SDS011;35029;50.804;12.866;2023-06-22T09:54:56;14.32;;;8.15;;
49193;SDS011;35029;50.804;12.866;2023-06-22T09:57:22;8.95;;;8.00;;
49193;SDS011;35029;50.804;12.866;2023-06-22T09:59:47;7.53;;;6.82;;
49193;SDS011;35029;50.804;12.866;2023-06-22T10:02:13;8.57;;;7.70;;
49193;SDS011;35029;50.804;12.866;2023-06-22T10:04:38;8.73;;;7.82;;
49193;SDS011;35029;50.804;12.866;2023-06-22T10:07:05;9.85;;;6.90;;
49193;SDS011;35029;50.804;12.866;2023-06-22T10:09:31;7.97;;;7.28;;
49193;SDS011;35029;50.804;12.866;2023-06-22T10:11:58;10.52;;;7.45;;
49193;SDS011;35029;50.804;12.866;2023-06-22T10:14:24;8.82;;;7.55;;
49193;SDS011;35029;50.804;12.866;2023-06-22T10:16:52;7.97;;;7.28;;
49193;SDS011;35029;50.804;12.866;2023-06-22T10:19:18;10.75;;;8.60;;
49193;SDS011;35029;50.804;12.866;2023-06-22T10:21:43;8.65;;;7.50;;
49193;SDS011;35029;50.804;12.866;2023-06-22T10:24:09;10.65;;;7.68;;
49193;SDS011;35029;50.804;12.866;2023-06-22T10:26:35;8.07;;;7.38;;
49193;SDS011;35029;50.804;12.866;2023-06-22T10:29:04;8.27;;;7.47;;
49193;SDS011;35029;50.804;12.866;2023-06-22T10:31:30;8.30;;;7.50;;
49193;SDS011;35029;50.804;12.866;2023-06-22T10:33:56;8.25;;;7.45;;
49193;SDS011;35029;50.804;12.866;2023-06-22T10:36:22;8.98;;;7.60;;
49193;SDS011;35029;50.804;12.866;2023-06-22T10:38:48;9.32;;;7.45;;
49193;SDS011;35029;50.804;12.866;2023-06-22T10:41:14;8.95;;;8.10;;
49193;SDS011;35029;50.804;12.866;2023-06-22T10:43:39;12.90;;;8.25;;
49193;SDS011;35029;50.804;12.866;2023-06-22T10:46:06;10.18;;;7.25;;
49193;SDS011;35029;50.804;12.866;2023-06-22T10:48:32;11.75;;;8.18;;
49193;SDS011;35029;50.804;12.866;2023-06-22T10:50:58;8.65;;;7.95;;
49193;SDS011;35029;50.804;12.866;2023-06-22T10:53:24;11.45;;;8.20;;
49193;SDS011;35029;50.804;12.866;2023-06-22T10:55:49;8.00;;;7.20;;
49193;SDS011;35029;50.804;12.866;2023-06-22T10:58:17;8.35;;;7.03;;
49193;SDS011;35029;50.804;12.866;2023-06-22T11:00:43;8.15;;;7.10;;
49193;SDS011;35029;50.804;12.866;2023-06-22T11:03:08;11.52;;;8.23;;
49193;SDS011;35029;50.804;12.866;2023-06-22T11:05:34;8.25;;;7.45;;
49193;SDS011;35029;50.804;12.866;2023-06-22T11:07:59;12.05;;;7.07;;
49193;SDS011;35029;50.804;12.866;2023-06-22T11:10:25;8.13;;;7.40;;
49193;SDS011;35029;50.804;12.866;2023-06-22T11:12:52;8.25;;;7.40;;
49193;SDS011;35029;50.804;12.866;2023-06-22T11:15:18;8.38;;;7.55;;
49193;SDS011;35029;50.804;12.866;2023-06-22T11:17:44;8.35;;;7.55;;
49193;SDS011;35029;50.804;12.866;2023-06-22T11:20:09;8.48;;;7.65;;
49193;SDS011;35029;50.804;12.866;2023-06-22T11:22:39;7.95;;;7.13;;
49193;SDS011;35029;50.804;12.866;2023-06-22T11:25:05;8.73;;;7.05;;
49193;SDS011;35029;50.804;12.866;2023-06-22T11:27:31;8.48;;;7.03;;
49193;SDS011;35029;50.804;12.866;2023-06-22T11:29:57;7.95;;;6.82;;
49193;SDS011;35029;50.804;12.866;2023-06-22T11:32:23;9.68;;;7.57;;
49193;SDS011;35029;50.804;12.866;2023-06-22T11:34:49;8.30;;;6.72;;
49193;SDS011;35029;50.804;12.866;2023-06-22T11:37:15;9.05;;;7.10;;
49193;SDS011;35029;50.804;12.866;2023-06-22T11:39:41;7.97;;;6.68;;
49193;SDS011;35029;50.804;12.866;2023-06-22T11:42:07;13.80;;;6.95;;
49193;SDS011;35029;50.804;12.866;2023-06-22T11:44:34;9.25;;;6.85;;
49193;SDS011;35029;50.804;12.866;2023-06-22T11:46:59;8.32;;;7.00;;
49193;SDS011;35029;50.804;12.866;2023-06-22T11:49:26;9.13;;;6.65;;
49193;SDS011;35029;50.804;12.866;2023-06-22T11:51:52;8.18;;;7.30;;
49193;SDS011;35029;50.804;12.866;2023-06-22T11:54:19;8.55;;;6.78;;
49193;SDS011;35029;50.804;12.866;2023-06-22T11:56:45;8.18;;;7.15;;
49193;SDS011;35029;50.804;12.866;2023-06-22T11:59:11;7.93;;;7.13;;
49193;SDS011;35029;50.804;12.866;2023-06-22T12:01:36;12.88;;;7.18;;
49193;SDS011;35029;50.804;12.866;2023-06-22T12:04:02;6.95;;;6.35;;
49193;SDS011;35029;50.804;12.866;2023-06-22T12:06:32;9.13;;;6.80;;
49193;SDS011;35029;50.804;12.866;2023-06-22T12:08:58;8.80;;;6.70;;
49193;SDS011;35029;50.804;12.866;2023-06-22T12:11:24;8.48;;;7.50;;
49193;SDS011;35029;50.804;12.866;2023-06-22T12:13:49;8.48;;;6.50;;
49193;SDS011;35029;50.804;12.866;2023-06-22T12:16:15;7.97;;;7.20;;
49193;SDS011;35029;50.804;12.866;2023-06-22T12:18:40;7.60;;;6.88;;
49193;SDS011;35029;50.804;12.866;2023-06-22T12:21:06;9.43;;;6.57;;
49193;SDS011;35029;50.804;12.866;2023-06-22T12:23:32;7.63;;;6.55;;
49193;SDS011;35029;50.804;12.866;2023-06-22T12:25:58;7.68;;;6.93;;
49193;SDS011;35029;50.804;12.866;2023-06-22T12:28:25;7.75;;;6.95;;
49193;SDS011;35029;50.804;12.866;2023-06-22T12:30:50;13.63;;;7.15;;
49193;SDS011;35029;50.804;12.866;2023-06-22T12:33:16;7.63;;;6.85;;
49193;SDS011;35029;50.804;12.866;2023-06-22T12:35:41;8.43;;;7.28;;
49193;SDS011;35029;50.804;12.866;2023-06-22T12:38:07;7.45;;;6.75;;
49193;SDS011;35029;50.804;12.866;2023-06-22T12:40:33;7.60;;;6.80;;
49193;SDS011;35029;50.804;12.866;2023-06-22T12:42:58;9.05;;;7.43;;
49193;SDS011;35029;50.804;12.866;2023-06-22T12:45:24;7.82;;;6.82;;
49193;SDS011;35029;50.804;12.866;2023-06-22T12:47:54;8.45;;;6.82;;
49193;SDS011;35029;50.804;12.866;2023-06-22T12:50:20;8.10;;;7.28;;
49193;SDS011;35029;50.804;12.866;2023-06-22T12:52:45;8.05;;;7.18;;
49193;SDS011;35029;50.804;12.866;2023-06-22T12:55:11;9.73;;;7.93;;
49193;SDS011;35029;50.804;12.866;2023-06-22T12:57:36;7.97;;;7.25;;
49193;SDS011;35029;50.804;12.866;2023-06-22T13:00:02;7.95;;;7.20;;
49193;SDS011;35029;50.804;12.866;2023-06-22T13:02:29;8.68;;;7.88;;
49193;SDS011;35029;50.804;12.866;2023-06-22T13:04:56;10.93;;;8.05;;
49193;SDS011;35029;50.804;12.866;2023-06-22T13:07:22;8.27;;;7.50;;
49193;SDS011;35029;50.804;12.866;2023-06-22T13:09:47;7.93;;;7.22;;
49193;SDS011;35029;50.804;12.866;2023-06-22T13:12:16;9.18;;;7.93;;
49193;SDS011;35029;50.804;12.866;2023-06-22T13:14:42;11.05;;;8.05;;
49193;SDS011;35029;50.804;12.866;2023-06-22T13:17:08;10.57;;;7.90;;
49193;SDS011;35029;50.804;12.866;2023-06-22T13:19:34;8.15;;;7.35;;
49193;SDS011;35029;50.804;12.866;2023-06-22T13:22:00;14.60;;;7.63;;
49193;SDS011;35029;50.804;12.866;2023-06-22T13:24:25;11.02;;;7.97;;
49193;SDS011;35029;50.804;12.866;2023-06-22T13:26:51;10.10;;;7.68;;
49193;SDS011;35029;50.804;12.866;2023-06-22T13:29:16;9.68;;;8.35;;
49193;SDS011;35029;50.804;12.866;2023-06-22T13:31:42;8.82;;;7.70;;
49193;SDS011;35029;50.804;12.866;2023-06-22T13:34:07;9.05;;;8.25;;
49193;SDS011;35029;50.804;12.866;2023-06-22T13:36:33;8.80;;;7.90;;
49193;SDS011;35029;50.804;12.866;2023-06-22T13:38:59;11.38;;;8.77;;
49193;SDS011;35029;50.804;12.866;2023-06-22T13:41:24;9.70;;;7.65;;
49193;SDS011;35029;50.804;12.866;2023-06-22T13:43:50;8.93;;;7.53;;
49193;SDS011;35029;50.804;12.866;2023-06-22T13:46:15;12.65;;;8.02;;
49193;SDS011;35029;50.804;12.866;2023-06-22T13:48:41;9.38;;;7.50;;
49193;SDS011;35029;50.804;12.866;2023-06-22T13:51:06;11.02;;;8.18;;
49193;SDS011;35029;50.804;12.866;2023-06-22T13:53:32;7.75;;;7.03;;
49193;SDS011;35029;50.804;12.866;2023-06-22T13:55:57;8.23;;;7.22;;
49193;SDS011;35029;50.804;12.866;2023-06-22T13:58:23;8.93;;;7.25;;
49193;SDS011;35029;50.804;12.866;2023-06-22T14:00:49;9.13;;;7.85;;
49193;SDS011;35029;50.804;12.866;2023-06-22T14:03:14;9.18;;;7.32;;
49193;SDS011;35029;50.804;12.866;2023-06-22T14:05:42;7.85;;;7.15;;
49193;SDS011;35029;50.804;12.866;2023-06-22T14:08:07;7.40;;;6.70;;
49193;SDS011;35029;50.804;12.866;2023-06-22T14:10:34;8.48;;;7.55;;
49193;SDS011;35029;50.804;12.866;2023-06-22T14:12:59;8.98;;;6.95;;
49193;SDS011;35029;50.804;12.866;2023-06-22T14:15:25;7.78;;;6.95;;
49193;SDS011;35029;50.804;12.866;2023-06-22T14:17:51;13.60;;;7.82;;
49193;SDS011;35029;50.804;12.866;2023-06-22T14:20:17;10.85;;;7.00;;
49193;SDS011;35029;50.804;12.866;2023-06-22T14:22:43;8.40;;;7.60;;
49193;SDS011;35029;50.804;12.866;2023-06-22T14:25:08;8.05;;;7.28;;
49193;SDS011;35029;50.804;12.866;2023-06-22T14:27:34;8.60;;;7.20;;